sensor_id;sensor_type;location;lat;lon;timestamp;pressure;altitude;pressure_sealevel;temperature;humidity
40918;BME280;26644;50.248;19.032;2022-11-11T00:00:17;99511.88;;;7.10;80.00
40918;BME280;26644;50.248;19.032;2022-11-11T00:01:38;99507.47;;;7.09;80.19
40918;BME280;26644;50.248;19.032;2022-11-11T00:02:59;99505.00;;;7.08;79.93
40918;BME280;26644;50.248;19.032;2022-11-11T00:04:19;99505.44;;;7.05;80.58
40918;BME280;26644;50.248;19.032;2022-11-11T00:05:40;99513.00;;;7.03;80.47
40918;BME280;26644;50.248;19.032;2022-11-11T00:07:02;99511.56;;;7.00;80.76
40918;BME280;26644;50.248;19.032;2022-11-11T00:08:24;99511.78;;;6.99;80.52
40918;BME280;26644;50.248;19.032;2022-11-11T00:09:45;99514.75;;;6.97;80.43
40918;BME280;26644;50.248;19.032;2022-11-11T00:11:08;99509.38;;;6.90;80.81
40918;BME280;26644;50.248;19.032;2022-11-11T00:12:30;99516.06;;;6.94;80.79
40918;BME280;26644;50.248;19.032;2022-11-11T00:13:53;99523.63;;;6.92;80.76
40918;BME280;26644;50.248;19.032;2022-11-11T00:15:13;99520.91;;;6.92;80.79
40918;BME280;26644;50.248;19.032;2022-11-11T00:16:34;99515.44;;;6.92;80.62
40918;BME280;26644;50.248;19.032;2022-11-11T00:18:10;99520.31;;;6.90;81.08
40918;BME280;26644;50.248;19.032;2022-11-11T00:19:50;99519.22;;;6.91;80.89
40918;BME280;26644;50.248;19.032;2022-11-11T00:21:28;99522.19;;;6.90;81.30
40918;BME280;26644;50.248;19.032;2022-11-11T00:23:20;99525.38;;;6.87;80.93
40918;BME280;26644;50.248;19.032;2022-11-11T00:24:57;99531.44;;;6.89;81.25
40918;BME280;26644;50.248;19.032;2022-11-11T00:26:27;99534.16;;;6.89;81.00
40918;BME280;26644;50.248;19.032;2022-11-11T00:27:49;99537.75;;;6.89;81.26
40918;BME280;26644;50.248;19.032;2022-11-11T00:29:09;99532.28;;;6.89;81.12
40918;BME280;26644;50.248;19.032;2022-11-11T00:30:30;99540.25;;;6.91;81.35
40918;BME280;26644;50.248;19.032;2022-11-11T00:31:51;99541.91;;;6.92;81.12
40918;BME280;26644;50.248;19.032;2022-11-11T00:33:30;99539.41;;;6.90;80.93
40918;BME280;26644;50.248;19.032;2022-11-11T00:34:52;99544.03;;;6.90;81.24
40918;BME280;26644;50.248;19.032;2022-11-11T00:36:33;99554.63;;;6.98;81.00
40918;BME280;26644;50.248;19.032;2022-11-11T00:37:54;99550.03;;;6.99;80.65
40918;BME280;26644;50.248;19.032;2022-11-11T00:39:14;99549.78;;;7.00;81.25
40918;BME280;26644;50.248;19.032;2022-11-11T00:40:36;99550.03;;;6.99;81.24
40918;BME280;26644;50.248;19.032;2022-11-11T00:41:58;99555.50;;;6.99;80.69
40918;BME280;26644;50.248;19.032;2022-11-11T00:43:19;99548.34;;;6.98;80.67
40918;BME280;26644;50.248;19.032;2022-11-11T00:44:38;99548.34;;;6.98;80.76
40918;BME280;26644;50.248;19.032;2022-11-11T00:45:59;99550.03;;;6.99;80.66
40918;BME280;26644;50.248;19.032;2022-11-11T00:47:34;99546.00;;;7.01;80.92
40918;BME280;26644;50.248;19.032;2022-11-11T00:49:13;99549.56;;;7.02;80.42
40918;BME280;26644;50.248;19.032;2022-11-11T00:50:52;99542.41;;;7.01;80.46
40918;BME280;26644;50.248;19.032;2022-11-11T00:52:20;99538.25;;;6.98;80.29
40918;BME280;26644;50.248;19.032;2022-11-11T00:53:41;99548.97;;;7.00;80.64
40918;BME280;26644;50.248;19.032;2022-11-11T00:55:02;99548.34;;;6.98;80.69
40918;BME280;26644;50.248;19.032;2022-11-11T00:56:25;99533.03;;;6.97;80.82
40918;BME280;26644;50.248;19.032;2022-11-11T00:57:46;99538.72;;;6.95;80.25
40918;BME280;26644;50.248;19.032;2022-11-11T00:59:07;99536.06;;;6.88;80.72
40918;BME280;26644;50.248;19.032;2022-11-11T01:00:29;99533.72;;;6.92;81.21
40918;BME280;26644;50.248;19.032;2022-11-11T01:01:49;99540.84;;;6.93;80.71
40918;BME280;26644;50.248;19.032;2022-11-11T01:03:10;99543.34;;;6.94;81.24
40918;BME280;26644;50.248;19.032;2022-11-11T01:04:31;99538.25;;;6.98;81.06
40918;BME280;26644;50.248;19.032;2022-11-11T01:05:52;99538.88;;;7.00;81.39
40918;BME280;26644;50.248;19.032;2022-11-11T01:07:12;99536.53;;;7.04;80.87
40918;BME280;26644;50.248;19.032;2022-11-11T01:08:33;99539.63;;;7.07;80.81
40918;BME280;26644;50.248;19.032;2022-11-11T01:09:54;99536.47;;;7.10;81.09
40918;BME280;26644;50.248;19.032;2022-11-11T01:11:18;99540.41;;;7.15;80.74
40918;BME280;26644;50.248;19.032;2022-11-11T01:12:41;99532.34;;;7.20;80.80
40918;BME280;26644;50.248;19.032;2022-11-11T01:14:01;99532.75;;;7.23;80.37
40918;BME280;26644;50.248;19.032;2022-11-11T01:15:23;99525.50;;;7.29;80.62
40918;BME280;26644;50.248;19.032;2022-11-11T01:16:43;99527.53;;;7.34;80.37
40918;BME280;26644;50.248;19.032;2022-11-11T01:18:04;99514.34;;;7.31;80.54
40918;BME280;26644;50.248;19.032;2022-11-11T01:19:24;99531.03;;;7.41;80.15
40918;BME280;26644;50.248;19.032;2022-11-11T01:20:46;99525.91;;;7.44;79.97
40918;BME280;26644;50.248;19.032;2022-11-11T01:22:05;99510.59;;;7.43;80.00
40918;BME280;26644;50.248;19.032;2022-11-11T01:23:27;99526.03;;;7.50;79.39
40918;BME280;26644;50.248;19.032;2022-11-11T01:24:47;99522.03;;;7.52;79.71
40918;BME280;26644;50.248;19.032;2022-11-11T01:26:13;99513.81;;;7.52;79.37
40918;BME280;26644;50.248;19.032;2022-11-11T01:27:35;99512.75;;;7.53;79.33
40918;BME280;26644;50.248;19.032;2022-11-11T01:28:56;99522.63;;;7.54;79.59
40918;BME280;26644;50.248;19.032;2022-11-11T01:30:17;99520.97;;;7.53;79.26
40918;BME280;26644;50.248;19.032;2022-11-11T01:31:38;99517.16;;;7.54;79.24
40918;BME280;26644;50.248;19.032;2022-11-11T01:32:59;99525.94;;;7.56;79.24
40918;BME280;26644;50.248;19.032;2022-11-11T01:34:19;99516.09;;;7.55;79.24
40918;BME280;26644;50.248;19.032;2022-11-11T01:35:41;99515.88;;;7.57;79.32
40918;BME280;26644;50.248;19.032;2022-11-11T01:37:02;99522.78;;;7.59;79.39
40918;BME280;26644;50.248;19.032;2022-11-11T01:38:22;99520.84;;;7.60;79.78
40918;BME280;26644;50.248;19.032;2022-11-11T01:39:43;99522.28;;;7.62;79.39
40918;BME280;26644;50.248;19.032;2022-11-11T01:41:05;99522.91;;;7.65;79.36
40918;BME280;26644;50.248;19.032;2022-11-11T01:42:46;99523.25;;;7.68;79.41
40918;BME280;26644;50.248;19.032;2022-11-11T01:44:41;99523.63;;;7.72;79.54
40918;BME280;26644;50.248;19.032;2022-11-11T01:46:08;99526.72;;;7.75;79.31
40918;BME280;26644;50.248;19.032;2022-11-11T01:47:36;99524.38;;;7.79;79.51
40918;BME280;26644;50.248;19.032;2022-11-11T01:49:22;99521.75;;;7.84;79.30
40918;BME280;26644;50.248;19.032;2022-11-11T01:50:48;99521.28;;;7.87;79.17
40918;BME280;26644;50.248;19.032;2022-11-11T01:52:13;99517.00;;;7.91;78.86
40918;BME280;26644;50.248;19.032;2022-11-11T01:53:36;99517.38;;;7.95;78.82
40918;BME280;26644;50.248;19.032;2022-11-11T01:55:02;99520.69;;;7.97;79.03
40918;BME280;26644;50.248;19.032;2022-11-11T01:56:26;99520.47;;;7.99;79.13
40918;BME280;26644;50.248;19.032;2022-11-11T01:57:50;99518.34;;;8.01;79.04
40918;BME280;26644;50.248;19.032;2022-11-11T01:59:15;99528.78;;;8.04;78.40
40918;BME280;26644;50.248;19.032;2022-11-11T02:00:39;99518.47;;;8.06;78.68
40918;BME280;26644;50.248;19.032;2022-11-11T02:02:04;99524.50;;;8.08;78.57
40918;BME280;26644;50.248;19.032;2022-11-11T02:03:35;99527.63;;;8.11;78.52
40918;BME280;26644;50.248;19.032;2022-11-11T02:05:03;99520.22;;;8.12;78.27
40918;BME280;26644;50.248;19.032;2022-11-11T02:06:39;99513.69;;;8.13;78.03
40918;BME280;26644;50.248;19.032;2022-11-11T02:08:03;99526.06;;;8.16;78.19
40918;BME280;26644;50.248;19.032;2022-11-11T02:09:31;99522.50;;;8.15;78.43
40918;BME280;26644;50.248;19.032;2022-11-11T02:10:52;99534.03;;;8.17;78.04
40918;BME280;26644;50.248;19.032;2022-11-11T02:12:12;99528.56;;;8.17;78.36
40918;BME280;26644;50.248;19.032;2022-11-11T02:13:51;99530.84;;;8.20;78.44
40918;BME280;26644;50.248;19.032;2022-11-11T02:15:30;99531.66;;;8.21;78.26
40918;BME280;26644;50.248;19.032;2022-11-11T02:16:52;99531.19;;;8.24;78.01
40918;BME280;26644;50.248;19.032;2022-11-11T02:18:13;99535.34;;;8.26;78.04
40918;BME280;26644;50.248;19.032;2022-11-11T02:19:43;99531.31;;;8.29;78.11
40918;BME280;26644;50.248;19.032;2022-11-11T02:21:05;99539.88;;;8.33;77.95
40918;BME280;26644;50.248;19.032;2022-11-11T02:22:35;99534.16;;;8.34;77.64
40918;BME280;26644;50.248;19.032;2022-11-11T02:24:06;99547.38;;;8.37;77.52
40918;BME280;26644;50.248;19.032;2022-11-11T02:25:30;99544.41;;;8.39;77.91
40918;BME280;26644;50.248;19.032;2022-11-11T02:26:55;99540.84;;;8.38;77.56
40918;BME280;26644;50.248;19.032;2022-11-11T02:28:18;99545.59;;;8.43;77.19
40918;BME280;26644;50.248;19.032;2022-11-11T02:29:46;99547.84;;;8.46;77.79
40918;BME280;26644;50.248;19.032;2022-11-11T02:31:07;99549.53;;;8.47;77.70
40918;BME280;26644;50.248;19.032;2022-11-11T02:32:28;99549.53;;;8.47;77.09
40918;BME280;26644;50.248;19.032;2022-11-11T02:33:48;99549.53;;;8.47;77.31
40918;BME280;26644;50.248;19.032;2022-11-11T02:35:16;99550.09;;;8.49;77.73
40918;BME280;26644;50.248;19.032;2022-11-11T02:36:39;99541.06;;;8.49;77.59
40918;BME280;26644;50.248;19.032;2022-11-11T02:38:05;99504.19;;;8.27;77.32
40918;BME280;26644;50.248;19.032;2022-11-11T02:39:28;99543.44;;;8.45;77.45
40918;BME280;26644;50.248;19.032;2022-11-11T02:40:50;99547.63;;;8.48;77.99
40918;BME280;26644;50.248;19.032;2022-11-11T02:42:30;99549.28;;;8.49;77.28
40918;BME280;26644;50.248;19.032;2022-11-11T02:43:52;99543.56;;;8.50;78.00
40918;BME280;26644;50.248;19.032;2022-11-11T02:45:12;99544.63;;;8.49;77.32
40918;BME280;26644;50.248;19.032;2022-11-11T02:46:33;99552.38;;;8.52;77.61
40918;BME280;26644;50.248;19.032;2022-11-11T02:47:53;99545.25;;;8.51;77.50
40918;BME280;26644;50.248;19.032;2022-11-11T02:49:14;99551.78;;;8.50;77.48
40918;BME280;26644;50.248;19.032;2022-11-11T02:50:34;99554.50;;;8.50;77.86
40918;BME280;26644;50.248;19.032;2022-11-11T02:51:55;99544.06;;;8.47;77.92
40918;BME280;26644;50.248;19.032;2022-11-11T02:53:16;99553.44;;;8.51;77.79
40918;BME280;26644;50.248;19.032;2022-11-11T02:54:37;99556.75;;;8.53;77.97
40918;BME280;26644;50.248;19.032;2022-11-11T02:55:58;99560.13;;;8.55;78.21
40918;BME280;26644;50.248;19.032;2022-11-11T02:57:20;99557.13;;;8.57;77.87
40918;BME280;26644;50.248;19.032;2022-11-11T02:58:41;99558.81;;;8.58;77.73
40918;BME280;26644;50.248;19.032;2022-11-11T03:00:04;99552.50;;;8.57;78.04
40918;BME280;26644;50.248;19.032;2022-11-11T03:01:25;99549.78;;;8.57;77.89
40918;BME280;26644;50.248;19.032;2022-11-11T03:02:46;99557.97;;;8.57;78.13
40918;BME280;26644;50.248;19.032;2022-11-11T03:04:07;99557.13;;;8.57;77.98
40918;BME280;26644;50.248;19.032;2022-11-11T03:05:27;99553.81;;;8.55;77.98
40918;BME280;26644;50.248;19.032;2022-11-11T03:06:48;99547.72;;;8.53;78.06
40918;BME280;26644;50.248;19.032;2022-11-11T03:08:08;99552.63;;;8.51;78.13
40918;BME280;26644;50.248;19.032;2022-11-11T03:09:29;99550.97;;;8.50;78.17
40918;BME280;26644;50.248;19.032;2022-11-11T03:10:52;99550.34;;;8.48;78.43
40918;BME280;26644;50.248;19.032;2022-11-11T03:12:13;99555.00;;;8.47;78.44
40918;BME280;26644;50.248;19.032;2022-11-11T03:13:33;99551.66;;;8.45;78.38
40918;BME280;26644;50.248;19.032;2022-11-11T03:14:54;99546.66;;;8.42;78.54
40918;BME280;26644;50.248;19.032;2022-11-11T03:16:14;99542.25;;;8.41;79.01
40918;BME280;26644;50.248;19.032;2022-11-11T03:18:06;99544.88;;;8.36;79.05
40918;BME280;26644;50.248;19.032;2022-11-11T03:19:27;99549.16;;;8.32;79.23
40918;BME280;26644;50.248;19.032;2022-11-11T03:20:48;99543.31;;;8.28;79.67
40918;BME280;26644;50.248;19.032;2022-11-11T03:22:23;99542.97;;;8.24;79.76
40918;BME280;26644;50.248;19.032;2022-11-11T03:23:43;99539.88;;;8.21;79.49
40918;BME280;26644;50.248;19.032;2022-11-11T03:25:05;99545.22;;;8.16;80.17
40918;BME280;26644;50.248;19.032;2022-11-11T03:26:46;99542.34;;;8.10;80.17
40918;BME280;26644;50.248;19.032;2022-11-11T03:28:09;99543.09;;;8.06;80.53
40918;BME280;26644;50.248;19.032;2022-11-11T03:29:30;99537.47;;;8.01;80.42
40918;BME280;26644;50.248;19.032;2022-11-11T03:30:52;99548.88;;;7.98;80.99
40918;BME280;26644;50.248;19.032;2022-11-11T03:32:13;99551.03;;;7.95;80.44
40918;BME280;26644;50.248;19.032;2022-11-11T03:33:33;99547.09;;;7.91;81.00
40918;BME280;26644;50.248;19.032;2022-11-11T03:34:54;99547.78;;;7.87;81.57
40918;BME280;26644;50.248;19.032;2022-11-11T03:36:14;99549.31;;;7.83;81.57
40918;BME280;26644;50.248;19.032;2022-11-11T03:37:35;99544.56;;;7.78;81.69
40918;BME280;26644;50.248;19.032;2022-11-11T03:39:13;99545.25;;;7.73;82.16
40918;BME280;26644;50.248;19.032;2022-11-11T03:40:33;99536.91;;;7.68;81.70
40918;BME280;26644;50.248;19.032;2022-11-11T03:41:56;99534.06;;;7.63;82.55
40918;BME280;26644;50.248;19.032;2022-11-11T03:43:18;99529.28;;;7.58;82.54
40918;BME280;26644;50.248;19.032;2022-11-11T03:44:40;99534.38;;;7.55;82.68
40918;BME280;26644;50.248;19.032;2022-11-11T03:46:02;99536.78;;;7.51;82.38
40918;BME280;26644;50.248;19.032;2022-11-11T03:47:25;99535.53;;;7.47;82.63
40918;BME280;26644;50.248;19.032;2022-11-11T03:48:45;99534.09;;;7.44;82.67
40918;BME280;26644;50.248;19.032;2022-11-11T03:50:06;99528.28;;;7.41;83.48
40918;BME280;26644;50.248;19.032;2022-11-11T03:51:27;99530.41;;;7.39;83.51
40918;BME280;26644;50.248;19.032;2022-11-11T03:52:48;99534.44;;;7.36;83.05
40918;BME280;26644;50.248;19.032;2022-11-11T03:54:08;99536.81;;;7.33;83.67
40918;BME280;26644;50.248;19.032;2022-11-11T03:55:30;99540.00;;;7.30;84.08
40918;BME280;26644;50.248;19.032;2022-11-11T03:56:51;99537.25;;;7.30;84.20
40918;BME280;26644;50.248;19.032;2022-11-11T03:58:13;99541.66;;;7.31;84.21
40918;BME280;26644;50.248;19.032;2022-11-11T03:59:34;99547.38;;;7.29;84.37
40918;BME280;26644;50.248;19.032;2022-11-11T04:00:54;99531.41;;;7.26;84.33
40918;BME280;26644;50.248;19.032;2022-11-11T04:02:15;99538.78;;;7.25;84.14
40918;BME280;26644;50.248;19.032;2022-11-11T04:03:54;99533.56;;;7.24;84.41
40918;BME280;26644;50.248;19.032;2022-11-11T04:05:33;99523.94;;;7.21;84.36
40918;BME280;26644;50.248;19.032;2022-11-11T04:07:17;99529.78;;;7.25;84.64
40918;BME280;26644;50.248;19.032;2022-11-11T04:08:56;99516.94;;;7.25;84.29
40918;BME280;26644;50.248;19.032;2022-11-11T04:10:35;99521.34;;;7.26;84.52
40918;BME280;26644;50.248;19.032;2022-11-11T04:11:56;99525.13;;;7.25;84.64
40918;BME280;26644;50.248;19.032;2022-11-11T04:13:18;99526.81;;;7.26;84.88
40918;BME280;26644;50.248;19.032;2022-11-11T04:14:57;99527.63;;;7.27;84.47
40918;BME280;26644;50.248;19.032;2022-11-11T04:16:36;99524.91;;;7.27;84.54
40918;BME280;26644;50.248;19.032;2022-11-11T04:17:57;99524.06;;;7.26;84.36
40918;BME280;26644;50.248;19.032;2022-11-11T04:19:16;99534.16;;;7.26;84.32
40918;BME280;26644;50.248;19.032;2022-11-11T04:20:56;99528.09;;;7.24;84.48
40918;BME280;26644;50.248;19.032;2022-11-11T04:22:38;99534.63;;;7.23;84.73
40918;BME280;26644;50.248;19.032;2022-11-11T04:23:59;99524.75;;;7.22;84.69
40918;BME280;26644;50.248;19.032;2022-11-11T04:25:19;99531.31;;;7.21;84.66
40918;BME280;26644;50.248;19.032;2022-11-11T04:27:01;99535.91;;;7.20;84.69
40918;BME280;26644;50.248;19.032;2022-11-11T04:28:24;99538.88;;;7.19;84.55
40918;BME280;26644;50.248;19.032;2022-11-11T04:30:14;99542.44;;;7.19;84.77
40918;BME280;26644;50.248;19.032;2022-11-11T04:31:35;99536.97;;;7.19;84.73
40918;BME280;26644;50.248;19.032;2022-11-11T04:32:56;99540.56;;;7.20;84.83
40918;BME280;26644;50.248;19.032;2022-11-11T04:34:17;99544.34;;;7.19;84.44
40918;BME280;26644;50.248;19.032;2022-11-11T04:35:36;99538.06;;;7.18;84.92
40918;BME280;26644;50.248;19.032;2022-11-11T04:36:57;99538.88;;;7.19;84.54
40918;BME280;26644;50.248;19.032;2022-11-11T04:38:18;99540.78;;;7.18;85.00
40918;BME280;26644;50.248;19.032;2022-11-11T04:39:57;99546.25;;;7.18;84.71
40918;BME280;26644;50.248;19.032;2022-11-11T04:41:35;99554.22;;;7.20;84.62
40918;BME280;26644;50.248;19.032;2022-11-11T04:42:56;99555.88;;;7.21;84.65
40918;BME280;26644;50.248;19.032;2022-11-11T04:44:18;99554.81;;;7.22;84.15
40918;BME280;26644;50.248;19.032;2022-11-11T04:45:57;99560.66;;;7.25;84.50
40918;BME280;26644;50.248;19.032;2022-11-11T04:47:18;99561.25;;;7.27;84.41
40918;BME280;26644;50.248;19.032;2022-11-11T04:48:38;99562.47;;;7.32;83.83
40918;BME280;26644;50.248;19.032;2022-11-11T04:49:59;99558.88;;;7.31;84.19
40918;BME280;26644;50.248;19.032;2022-11-11T04:51:19;99563.06;;;7.34;83.71
40918;BME280;26644;50.248;19.032;2022-11-11T04:53:02;99568.28;;;7.35;84.15
40918;BME280;26644;50.248;19.032;2022-11-11T04:54:24;99567.84;;;7.38;83.77
40918;BME280;26644;50.248;19.032;2022-11-11T04:55:45;99566.78;;;7.39;83.99
40918;BME280;26644;50.248;19.032;2022-11-11T04:57:23;99567.59;;;7.40;83.76
40918;BME280;26644;50.248;19.032;2022-11-11T04:58:43;99570.34;;;7.40;83.52
40918;BME280;26644;50.248;19.032;2022-11-11T05:00:09;99562.38;;;7.38;83.73
40918;BME280;26644;50.248;19.032;2022-11-11T05:01:31;99568.06;;;7.37;83.92
40918;BME280;26644;50.248;19.032;2022-11-11T05:03:11;99577.91;;;7.38;83.43
40918;BME280;26644;50.248;19.032;2022-11-11T05:04:36;99575.19;;;7.38;83.62
40918;BME280;26644;50.248;19.032;2022-11-11T05:05:58;99577.09;;;7.37;83.47
40918;BME280;26644;50.248;19.032;2022-11-11T05:07:38;99588.66;;;7.39;83.53
40918;BME280;26644;50.248;19.032;2022-11-11T05:09:17;99584.81;;;7.40;83.38
40918;BME280;26644;50.248;19.032;2022-11-11T05:10:37;99581.25;;;7.40;83.69
40918;BME280;26644;50.248;19.032;2022-11-11T05:11:57;99586.50;;;7.41;83.10
40918;BME280;26644;50.248;19.032;2022-11-11T05:13:19;99590.09;;;7.42;83.27
40918;BME280;26644;50.248;19.032;2022-11-11T05:14:58;99595.31;;;7.43;83.26
40918;BME280;26644;50.248;19.032;2022-11-11T05:16:43;99587.56;;;7.40;83.16
40918;BME280;26644;50.248;19.032;2022-11-11T05:18:23;99597.19;;;7.43;83.13
40918;BME280;26644;50.248;19.032;2022-11-11T05:20:02;99590.53;;;7.39;83.09
40918;BME280;26644;50.248;19.032;2022-11-11T05:21:41;99599.91;;;7.43;83.04
40918;BME280;26644;50.248;19.032;2022-11-11T05:23:02;99604.34;;;7.44;82.80
40918;BME280;26644;50.248;19.032;2022-11-11T05:24:22;99607.06;;;7.44;83.06
40918;BME280;26644;50.248;19.032;2022-11-11T05:26:01;99601.00;;;7.42;83.02
40918;BME280;26644;50.248;19.032;2022-11-11T05:27:22;99602.88;;;7.41;83.11
40918;BME280;26644;50.248;19.032;2022-11-11T05:28:43;99602.88;;;7.41;83.30
40918;BME280;26644;50.248;19.032;2022-11-11T05:30:05;99606.69;;;7.40;83.18
40918;BME280;26644;50.248;19.032;2022-11-11T05:31:28;99603.75;;;7.42;83.07
40918;BME280;26644;50.248;19.032;2022-11-11T05:32:50;99604.81;;;7.41;83.04
40918;BME280;26644;50.248;19.032;2022-11-11T05:34:11;99600.41;;;7.40;83.30
40918;BME280;26644;50.248;19.032;2022-11-11T05:35:32;99609.41;;;7.40;82.94
40918;BME280;26644;50.248;19.032;2022-11-11T05:36:54;99613.22;;;7.39;83.23
40918;BME280;26644;50.248;19.032;2022-11-11T05:38:14;99619.53;;;7.40;83.42
40918;BME280;26644;50.248;19.032;2022-11-11T05:39:42;99623.94;;;7.41;83.69
40918;BME280;26644;50.248;19.032;2022-11-11T05:41:02;99620.34;;;7.40;83.32
40918;BME280;26644;50.248;19.032;2022-11-11T05:42:23;99632.94;;;7.41;83.25
40918;BME280;26644;50.248;19.032;2022-11-11T05:43:44;99625.00;;;7.40;83.35
40918;BME280;26644;50.248;19.032;2022-11-11T05:45:06;99635.44;;;7.43;83.15
40918;BME280;26644;50.248;19.032;2022-11-11T05:46:27;99632.47;;;7.44;82.93
40918;BME280;26644;50.248;19.032;2022-11-11T05:47:49;99630.84;;;7.43;83.00
40918;BME280;26644;50.248;19.032;2022-11-11T05:49:10;99627.88;;;7.45;83.33
40918;BME280;26644;50.248;19.032;2022-11-11T05:50:36;99630.38;;;7.47;83.20
40918;BME280;26644;50.248;19.032;2022-11-11T05:52:02;99630.13;;;7.48;83.26
40918;BME280;26644;50.248;19.032;2022-11-11T05:53:22;99628.00;;;7.50;82.87
40918;BME280;26644;50.248;19.032;2022-11-11T05:54:43;99619.81;;;7.50;83.21
40918;BME280;26644;50.248;19.032;2022-11-11T05:56:04;99620.63;;;7.51;83.07
40918;BME280;26644;50.248;19.032;2022-11-11T05:57:25;99606.81;;;7.45;82.96
40918;BME280;26644;50.248;19.032;2022-11-11T05:58:45;99617.09;;;7.50;82.96
40918;BME280;26644;50.248;19.032;2022-11-11T06:00:08;99626.97;;;7.51;83.19
40918;BME280;26644;50.248;19.032;2022-11-11T06:01:29;99620.63;;;7.51;83.05
40918;BME280;26644;50.248;19.032;2022-11-11T06:02:52;99628.59;;;7.52;83.08
40918;BME280;26644;50.248;19.032;2022-11-11T06:04:13;99634.91;;;7.53;82.74
40918;BME280;26644;50.248;19.032;2022-11-11T06:05:35;99635.75;;;7.53;83.18
40918;BME280;26644;50.248;19.032;2022-11-11T06:06:55;99638.25;;;7.55;82.77
40918;BME280;26644;50.248;19.032;2022-11-11T06:08:16;99641.84;;;7.55;82.70
40918;BME280;26644;50.248;19.032;2022-11-11T06:09:37;99641.44;;;7.52;82.86
40918;BME280;26644;50.248;19.032;2022-11-11T06:10:58;99643.94;;;7.53;83.42
40918;BME280;26644;50.248;19.032;2022-11-11T06:12:18;99639.31;;;7.54;82.90
40918;BME280;26644;50.248;19.032;2022-11-11T06:13:39;99636.94;;;7.57;82.88
40918;BME280;26644;50.248;19.032;2022-11-11T06:14:59;99637.34;;;7.61;82.67
40918;BME280;26644;50.248;19.032;2022-11-11T06:16:20;99640.66;;;7.63;82.60
40918;BME280;26644;50.248;19.032;2022-11-11T06:17:41;99639.34;;;7.66;82.92
40918;BME280;26644;50.248;19.032;2022-11-11T06:19:02;99632.84;;;7.67;82.32
40918;BME280;26644;50.248;19.032;2022-11-11T06:20:23;99636.41;;;7.67;82.38
40918;BME280;26644;50.248;19.032;2022-11-11T06:21:43;99629.66;;;7.70;82.49
40918;BME280;26644;50.248;19.032;2022-11-11T06:23:16;99631.53;;;7.69;82.57
40918;BME280;26644;50.248;19.032;2022-11-11T06:24:37;99637.84;;;7.70;82.54
40918;BME280;26644;50.248;19.032;2022-11-11T06:25:58;99625.50;;;7.67;82.62
40918;BME280;26644;50.248;19.032;2022-11-11T06:27:39;99631.91;;;7.73;82.16
40918;BME280;26644;50.248;19.032;2022-11-11T06:29:00;99627.28;;;7.73;82.16
40918;BME280;26644;50.248;19.032;2022-11-11T06:30:23;99625.97;;;7.76;82.33
40918;BME280;26644;50.248;19.032;2022-11-11T06:31:43;99631.22;;;7.77;82.33
40918;BME280;26644;50.248;19.032;2022-11-11T06:33:05;99633.25;;;7.82;82.04
40918;BME280;26644;50.248;19.032;2022-11-11T06:34:27;99637.44;;;7.85;82.00
40918;BME280;26644;50.248;19.032;2022-11-11T06:35:49;99631.72;;;7.86;81.71
40918;BME280;26644;50.248;19.032;2022-11-11T06:37:10;99632.31;;;7.88;81.81
40918;BME280;26644;50.248;19.032;2022-11-11T06:38:31;99632.94;;;7.90;81.54
40918;BME280;26644;50.248;19.032;2022-11-11T06:39:52;99619.25;;;7.90;81.40
40918;BME280;26644;50.248;19.032;2022-11-11T06:41:13;99626.41;;;7.91;81.74
40918;BME280;26644;50.248;19.032;2022-11-11T06:42:35;99629.13;;;7.91;81.24
40918;BME280;26644;50.248;19.032;2022-11-11T06:43:56;99612.72;;;7.91;81.36
40918;BME280;26644;50.248;19.032;2022-11-11T06:45:17;99619.88;;;7.92;81.41
40918;BME280;26644;50.248;19.032;2022-11-11T06:46:37;99630.09;;;7.97;81.05
40918;BME280;26644;50.248;19.032;2022-11-11T06:47:58;99628.19;;;7.98;80.92
40918;BME280;26644;50.248;19.032;2022-11-11T06:49:18;99631.53;;;8.00;80.67
40918;BME280;26644;50.248;19.032;2022-11-11T06:50:42;99632.34;;;8.00;80.78
40918;BME280;26644;50.248;19.032;2022-11-11T06:52:02;99632.34;;;8.00;80.53
40918;BME280;26644;50.248;19.032;2022-11-11T06:53:23;99630.22;;;8.02;80.50
40918;BME280;26644;50.248;19.032;2022-11-11T06:54:44;99631.91;;;8.03;80.21
40918;BME280;26644;50.248;19.032;2022-11-11T06:56:06;99629.75;;;8.05;80.59
40918;BME280;26644;50.248;19.032;2022-11-11T06:57:27;99628.47;;;8.08;79.81
40918;BME280;26644;50.248;19.032;2022-11-11T06:58:48;99621.94;;;8.09;80.32
40918;BME280;26644;50.248;19.032;2022-11-11T07:00:10;99628.00;;;8.11;80.20
40918;BME280;26644;50.248;19.032;2022-11-11T07:01:31;99630.50;;;8.13;79.75
40918;BME280;26644;50.248;19.032;2022-11-11T07:02:54;99631.09;;;8.15;79.63
40918;BME280;26644;50.248;19.032;2022-11-11T07:04:14;99623.75;;;8.15;80.01
40918;BME280;26644;50.248;19.032;2022-11-11T07:05:35;99630.41;;;8.19;79.62
40918;BME280;26644;50.248;19.032;2022-11-11T07:06:57;99632.66;;;8.22;79.85
40918;BME280;26644;50.248;19.032;2022-11-11T07:08:17;99633.03;;;8.26;79.59
40918;BME280;26644;50.248;19.032;2022-11-11T07:09:38;99623.53;;;8.28;79.51
40918;BME280;26644;50.248;19.032;2022-11-11T07:10:59;99627.22;;;8.34;79.24
40918;BME280;26644;50.248;19.032;2022-11-11T07:12:21;99623.16;;;8.37;79.20
40918;BME280;26644;50.248;19.032;2022-11-11T07:13:42;99624.38;;;8.41;78.75
40918;BME280;26644;50.248;19.032;2022-11-11T07:15:03;99631.03;;;8.45;78.86
40918;BME280;26644;50.248;19.032;2022-11-11T07:16:23;99630.56;;;8.48;78.66
40918;BME280;26644;50.248;19.032;2022-11-11T07:17:44;99638.06;;;8.53;78.47
40918;BME280;26644;50.248;19.032;2022-11-11T07:19:05;99631.28;;;8.55;78.42
40918;BME280;26644;50.248;19.032;2022-11-11T07:20:26;99628.31;;;8.57;78.06
40918;BME280;26644;50.248;19.032;2022-11-11T07:21:47;99629.50;;;8.61;78.03
40918;BME280;26644;50.248;19.032;2022-11-11T07:23:09;99632.13;;;8.68;78.02
40918;BME280;26644;50.248;19.032;2022-11-11T07:24:31;99643.81;;;8.75;78.04
40918;BME280;26644;50.248;19.032;2022-11-11T07:25:51;99639.63;;;8.84;77.98
40918;BME280;26644;50.248;19.032;2022-11-11T07:27:11;99640.94;;;8.93;78.08